Time;durP1;ratioP1;P1;durP2;ratioP2;P2;SDS_P1;SDS_P2;PMS_P1;PMS_P2;Temp;Humidity;BMP_temperature;BMP_pressure;BME280_temperature;BME280_humidity;BME280_pressure;Samples;Min_cycle;Max_cycle;Signal;HPM_P1;HPM_P2
2024/01/22 00:00:38;;;;;;;7.40;4.33;;;8.20;99.90;;;;;;4891434;29;20451;-64
2024/01/22 00:03:04;;;;;;;4.23;3.90;;;8.30;99.90;;;;;;4902336;29;20550;-63
2024/01/22 00:05:30;;;;;;;6.40;4.23;;;8.30;99.90;;;;;;4889702;29;20191;-64
2024/01/22 00:07:56;;;;;;;4.40;4.00;;;8.20;99.90;;;;;;4884037;29;20432;-63
2024/01/22 00:10:22;;;;;;;5.83;3.90;;;8.30;99.90;;;;;;4892009;29;20218;-61
2024/01/22 00:12:48;;;;;;;4.93;4.03;;;8.30;99.90;;;;;;4899217;29;20218;-63
2024/01/22 00:15:13;;;;;;;4.50;4.10;;;8.30;99.90;;;;;;4895681;29;20439;-63
2024/01/22 00:17:39;;;;;;;4.73;4.33;;;8.30;99.90;;;;;;4897261;29;20598;-64
2024/01/22 00:20:07;;;;;;;4.40;4.00;;;8.20;99.90;;;;;;4886011;29;20587;-64
2024/01/22 00:22:32;;;;;;;4.37;3.97;;;8.30;99.90;;;;;;4885862;29;20176;-64
2024/01/22 00:24:58;;;;;;;4.57;4.27;;;8.30;99.90;;;;;;4900249;29;20461;-64
2024/01/22 00:27:24;;;;;;;4.97;4.50;;;8.40;99.90;;;;;;4895399;29;20258;-60
2024/01/22 00:29:49;;;;;;;5.63;4.30;;;8.30;99.90;;;;;;4891665;29;20212;-64
2024/01/22 00:32:15;;;;;;;4.33;4.00;;;8.30;99.90;;;;;;4887023;29;20192;-64
2024/01/22 00:34:41;;;;;;;3.87;3.67;;;8.30;99.90;;;;;;4891003;29;20384;-64
2024/01/22 00:37:07;;;;;;;4.67;4.27;;;8.40;99.90;;;;;;4898083;29;20529;-63
2024/01/22 00:39:33;;;;;;;3.70;3.40;;;8.40;99.90;;;;;;4890076;29;20191;-63
2024/01/22 00:41:59;;;;;;;4.33;4.00;;;8.40;99.90;;;;;;4878097;29;20440;-64
2024/01/22 00:44:25;;;;;;;3.73;3.53;;;8.50;99.90;;;;;;4891039;29;20263;-64
2024/01/22 00:46:50;;;;;;;5.77;4.20;;;8.40;99.90;;;;;;4887233;29;20515;-64
2024/01/22 00:49:16;;;;;;;4.03;3.63;;;8.50;99.90;;;;;;4850549;29;20186;-64
2024/01/22 00:51:42;;;;;;;3.77;3.47;;;8.40;99.90;;;;;;4887524;29;20180;-64
2024/01/22 00:54:08;;;;;;;4.30;4.00;;;8.40;99.90;;;;;;4891011;29;20534;-63
2024/01/22 00:56:34;;;;;;;3.97;3.67;;;8.50;99.90;;;;;;4884032;29;20188;-64
2024/01/22 00:59:00;;;;;;;4.37;3.97;;;8.50;99.90;;;;;;4889936;29;20563;-64
2024/01/22 01:01:26;;;;;;;4.63;3.90;;;8.50;99.90;;;;;;4890621;29;20433;-61
2024/01/22 01:03:52;;;;;;;3.50;3.30;;;8.60;99.90;;;;;;4888522;29;20444;-64
2024/01/22 01:06:17;;;;;;;4.20;3.80;;;8.60;99.90;;;;;;4885713;29;20187;-64
2024/01/22 01:08:43;;;;;;;4.43;4.03;;;8.70;99.90;;;;;;4895026;29;20179;-64
2024/01/22 01:11:09;;;;;;;4.23;3.70;;;8.80;99.90;;;;;;4884706;29;20732;-64
2024/01/22 01:13:35;;;;;;;3.57;3.27;;;8.70;99.90;;;;;;4883439;29;20198;-64
2024/01/22 01:16:01;;;;;;;4.97;3.53;;;8.60;99.90;;;;;;4885168;29;20999;-64
2024/01/22 01:18:27;;;;;;;4.03;3.83;;;8.60;99.90;;;;;;4875106;29;20183;-60
2024/01/22 01:20:53;;;;;;;4.20;3.80;;;8.60;99.90;;;;;;4886394;29;20214;-64
2024/01/22 01:23:19;;;;;;;3.33;3.13;;;8.50;99.90;;;;;;4887023;29;20456;-64
2024/01/22 01:25:44;;;;;;;4.77;4.00;;;8.60;99.90;;;;;;4897683;29;20359;-64
2024/01/22 01:28:10;;;;;;;3.93;3.63;;;8.60;99.90;;;;;;4893765;29;20183;-64
2024/01/22 01:30:36;;;;;;;4.37;3.97;;;8.60;99.90;;;;;;4886056;29;20271;-63
2024/01/22 01:33:02;;;;;;;3.80;3.50;;;8.70;99.90;;;;;;4888926;29;20202;-64
2024/01/22 01:35:27;;;;;;;4.47;4.13;;;8.70;99.90;;;;;;4894108;29;20183;-60
2024/01/22 01:37:53;;;;;;;4.47;3.13;;;8.80;99.90;;;;;;4896709;29;20197;-64
2024/01/22 01:40:19;;;;;;;4.47;3.70;;;8.80;99.90;;;;;;4888379;29;20326;-64
2024/01/22 01:42:45;;;;;;;3.77;3.50;;;8.80;99.90;;;;;;4872928;29;20191;-64
2024/01/22 01:45:16;;;;;;;3.43;3.17;;;8.80;99.90;;;;;;4881677;29;20440;-63
2024/01/22 01:47:47;;;;;;;3.83;3.50;;;8.80;99.90;;;;;;4879113;29;20171;-64
2024/01/22 01:50:14;;;;;;;4.00;3.70;;;8.80;99.90;;;;;;4883821;29;20535;-63
2024/01/22 01:52:42;;;;;;;3.87;3.57;;;8.80;99.90;;;;;;4889503;29;20426;-63
2024/01/22 01:55:09;;;;;;;3.20;3.00;;;8.80;99.90;;;;;;4889476;29;20441;-64
2024/01/22 01:57:39;;;;;;;3.53;3.33;;;8.80;99.90;;;;;;4887453;29;20467;-63
2024/01/22 02:00:09;;;;;;;3.57;3.37;;;8.70;99.90;;;;;;4887774;29;20451;-64
2024/01/22 02:02:39;;;;;;;3.50;3.30;;;8.80;99.90;;;;;;4883833;29;20425;-64
2024/01/22 02:05:06;;;;;;;3.73;3.43;;;8.80;99.90;;;;;;4877942;29;20508;-63
2024/01/22 02:07:31;;;;;;;3.90;3.63;;;8.80;99.90;;;;;;4870140;29;20463;-63
2024/01/22 02:09:57;;;;;;;3.23;3.03;;;8.90;99.90;;;;;;4883688;29;20463;-64
2024/01/22 02:12:23;;;;;;;3.77;3.57;;;9.00;99.90;;;;;;4882407;29;20191;-64
2024/01/22 02:14:49;;;;;;;3.97;3.77;;;8.90;99.90;;;;;;4891241;29;20254;-63
2024/01/22 02:17:16;;;;;;;3.50;3.20;;;9.00;99.90;;;;;;4894130;29;20471;-63
2024/01/22 02:19:42;;;;;;;3.57;3.27;;;9.10;99.90;;;;;;4871094;29;20861;-63
2024/01/22 02:22:08;;;;;;;3.40;3.20;;;9.20;99.90;;;;;;4888349;29;20427;-63
2024/01/22 02:24:34;;;;;;;2.80;2.63;;;9.10;99.90;;;;;;4884481;29;20947;-63
2024/01/22 02:26:59;;;;;;;3.77;3.53;;;9.20;99.90;;;;;;4878783;29;20218;-63
2024/01/22 02:29:25;;;;;;;3.37;3.17;;;9.20;99.90;;;;;;4894423;29;20269;-64
2024/01/22 02:31:52;;;;;;;2.90;2.70;;;9.30;99.90;;;;;;4879533;29;20718;-64
2024/01/22 02:34:19;;;;;;;3.20;3.10;;;9.30;99.90;;;;;;4890996;29;20243;-63
2024/01/22 02:36:46;;;;;;;3.40;3.20;;;9.30;99.90;;;;;;4885909;29;20426;-64
2024/01/22 02:39:12;;;;;;;3.37;3.07;;;9.30;99.90;;;;;;4882083;29;20785;-63
2024/01/22 02:41:39;;;;;;;3.80;3.60;;;9.30;99.90;;;;;;4880071;29;20770;-63
2024/01/22 02:44:04;;;;;;;3.33;3.13;;;9.30;99.90;;;;;;4889064;29;20423;-63
2024/01/22 02:46:30;;;;;;;2.83;2.73;;;9.30;99.90;;;;;;4860281;29;20790;-59
2024/01/22 02:48:56;;;;;;;4.03;3.40;;;9.30;99.90;;;;;;4878616;29;20583;-63
2024/01/22 02:51:22;;;;;;;3.10;2.90;;;9.30;99.90;;;;;;4879195;29;20204;-63
2024/01/22 02:53:48;;;;;;;3.20;3.00;;;9.40;99.90;;;;;;4881491;29;20188;-63
2024/01/22 02:56:18;;;;;;;3.43;3.23;;;9.30;99.90;;;;;;4885971;29;20206;-63
2024/01/22 02:58:44;;;;;;;3.63;3.33;;;9.50;99.90;;;;;;4894726;29;20805;-64
2024/01/22 03:01:10;;;;;;;3.30;3.10;;;9.50;99.90;;;;;;4893079;29;20515;-64
2024/01/22 03:03:35;;;;;;;3.43;3.07;;;9.50;99.90;;;;;;4880084;29;20426;-63
2024/01/22 03:06:01;;;;;;;3.17;3.07;;;9.50;99.90;;;;;;4887025;29;20956;-64
2024/01/22 03:08:27;;;;;;;3.10;3.00;;;9.50;99.90;;;;;;4883471;29;20265;-64
2024/01/22 03:10:53;;;;;;;3.40;3.17;;;9.50;99.90;;;;;;4891952;29;20545;-64
2024/01/22 03:13:19;;;;;;;3.30;3.10;;;9.50;99.90;;;;;;4890925;29;20445;-64
2024/01/22 03:15:45;;;;;;;3.37;3.17;;;9.50;99.90;;;;;;4883621;29;20472;-63
2024/01/22 03:18:12;;;;;;;3.60;3.40;;;9.50;99.90;;;;;;4894954;29;20516;-64
2024/01/22 03:20:37;;;;;;;3.00;2.90;;;9.50;99.90;;;;;;4880463;29;20607;-63
2024/01/22 03:23:04;;;;;;;3.67;3.40;;;9.60;99.90;;;;;;4889891;29;20522;-64
2024/01/22 03:25:30;;;;;;;3.20;3.10;;;9.50;99.90;;;;;;4885158;29;20200;-63
2024/01/22 03:27:56;;;;;;;3.10;2.90;;;9.60;99.90;;;;;;4880158;29;20460;-64
2024/01/22 03:30:21;;;;;;;3.07;2.97;;;9.60;99.90;;;;;;4883012;29;20463;-64
2024/01/22 03:32:47;;;;;;;3.40;3.20;;;9.60;99.90;;;;;;4882903;29;20185;-64
2024/01/22 03:35:13;;;;;;;4.73;3.30;;;9.60;99.90;;;;;;4885133;29;20190;-64
2024/01/22 03:37:40;;;;;;;3.33;3.03;;;9.60;99.90;;;;;;4885446;29;20579;-64
2024/01/22 03:40:07;;;;;;;4.00;3.80;;;9.70;99.90;;;;;;4876211;29;20223;-64
2024/01/22 03:42:33;;;;;;;2.90;2.80;;;9.60;99.90;;;;;;4886217;29;20426;-64
2024/01/22 03:44:59;;;;;;;3.23;3.10;;;9.70;99.90;;;;;;4871036;29;20439;-64
2024/01/22 03:47:27;;;;;;;3.53;3.33;;;9.70;99.90;;;;;;4879522;29;20580;-64
2024/01/22 03:49:53;;;;;;;3.50;3.20;;;9.70;99.90;;;;;;4877712;29;20206;-64
2024/01/22 03:52:18;;;;;;;4.70;2.87;;;9.70;99.90;;;;;;4878553;29;20480;-64
2024/01/22 03:54:44;;;;;;;3.30;3.20;;;9.80;99.90;;;;;;4879706;29;20186;-63
2024/01/22 03:57:10;;;;;;;3.77;3.07;;;9.80;99.90;;;;;;4891994;29;20241;-64
2024/01/22 03:59:37;;;;;;;5.30;3.23;;;9.70;99.90;;;;;;4861255;29;20180;-64
2024/01/22 04:02:03;;;;;;;3.47;3.17;;;9.70;99.90;;;;;;4886218;29;20531;-64
2024/01/22 04:04:29;;;;;;;2.93;2.83;;;9.70;99.90;;;;;;4895187;29;20814;-64
2024/01/22 04:06:55;;;;;;;4.40;3.50;;;9.70;99.90;;;;;;4891818;29;20435;-64
2024/01/22 04:09:21;;;;;;;3.00;2.80;;;9.70;99.90;;;;;;4886023;29;20426;-63
2024/01/22 04:11:47;;;;;;;2.97;2.80;;;9.70;99.90;;;;;;4894784;29;20431;-64
2024/01/22 04:14:12;;;;;;;2.90;2.80;;;9.70;99.90;;;;;;4885532;29;20467;-64
2024/01/22 04:16:38;;;;;;;2.73;2.60;;;9.70;99.90;;;;;;4883081;29;20659;-64
2024/01/22 04:19:04;;;;;;;2.90;2.80;;;9.60;99.90;;;;;;4881796;29;20661;-64
2024/01/22 04:21:31;;;;;;;3.23;3.00;;;9.60;99.90;;;;;;4883244;29;20195;-64
2024/01/22 04:23:57;;;;;;;2.97;2.87;;;9.50;99.90;;;;;;4884332;29;20248;-64
2024/01/22 04:26:23;;;;;;;3.00;2.80;;;9.70;99.90;;;;;;4896845;29;20477;-65
2024/01/22 04:28:49;;;;;;;2.90;2.80;;;9.70;99.90;;;;;;4872909;29;20426;-64
2024/01/22 04:31:14;;;;;;;2.93;2.80;;;9.60;99.90;;;;;;4896460;29;20234;-64
2024/01/22 04:33:43;;;;;;;3.10;2.80;;;9.50;99.90;;;;;;4888128;29;20215;-63
2024/01/22 04:36:09;;;;;;;3.20;2.80;;;9.50;99.90;;;;;;4887240;29;20429;-65
2024/01/22 04:38:35;;;;;;;2.67;2.57;;;9.50;99.90;;;;;;4884813;29;20915;-64
2024/01/22 04:41:01;;;;;;;2.60;2.50;;;9.50;99.90;;;;;;4899539;29;20932;-64
2024/01/22 04:43:27;;;;;;;2.70;2.60;;;9.50;99.90;;;;;;4890391;29;20245;-64
2024/01/22 04:45:52;;;;;;;2.97;2.87;;;9.50;99.90;;;;;;4871339;29;20209;-64
2024/01/22 04:48:18;;;;;;;2.53;2.43;;;9.40;99.90;;;;;;4898376;29;20262;-64
2024/01/22 04:50:44;;;;;;;2.70;2.50;;;9.50;99.90;;;;;;4882241;29;20418;-64
2024/01/22 04:53:09;;;;;;;3.00;2.90;;;9.40;99.90;;;;;;4897711;29;20628;-64
2024/01/22 04:55:35;;;;;;;2.90;2.80;;;9.40;99.90;;;;;;4896244;29;20536;-63
2024/01/22 04:58:01;;;;;;;3.00;2.63;;;9.40;99.90;;;;;;4887479;29;20228;-64
2024/01/22 05:00:27;;;;;;;3.63;3.00;;;9.40;99.90;;;;;;4872638;29;20220;-63
2024/01/22 05:02:52;;;;;;;2.27;2.17;;;9.40;99.90;;;;;;4890024;29;20172;-63
2024/01/22 05:05:18;;;;;;;2.50;2.40;;;9.30;99.90;;;;;;4880768;29;20189;-63
2024/01/22 05:07:44;;;;;;;2.20;2.10;;;9.20;99.90;;;;;;4881142;29;20186;-63
2024/01/22 05:10:10;;;;;;;2.37;2.27;;;9.10;99.90;;;;;;4888033;29;20676;-63
2024/01/22 05:12:36;;;;;;;2.90;2.70;;;9.20;99.90;;;;;;4882716;29;20193;-59
2024/01/22 05:15:03;;;;;;;2.33;2.10;;;9.20;99.90;;;;;;4893674;29;20941;-66
2024/01/22 05:17:29;;;;;;;2.10;2.00;;;9.30;99.90;;;;;;4886809;29;20554;-65
2024/01/22 05:19:55;;;;;;;2.60;2.27;;;9.30;99.90;;;;;;4863229;29;20782;-64
2024/01/22 05:22:21;;;;;;;2.40;2.20;;;9.30;99.90;;;;;;4884996;29;20481;-64
2024/01/22 05:24:47;;;;;;;2.40;2.30;;;9.30;99.90;;;;;;4890678;29;20543;-63
2024/01/22 05:27:14;;;;;;;1.90;1.90;;;9.30;99.90;;;;;;4892068;29;20436;-62
2024/01/22 05:29:40;;;;;;;2.67;2.57;;;9.30;99.90;;;;;;4884031;29;20462;-63
2024/01/22 05:32:06;;;;;;;2.50;2.40;;;9.20;99.90;;;;;;4881031;29;20440;-63
2024/01/22 05:34:32;;;;;;;2.40;2.30;;;9.20;99.90;;;;;;4867047;29;20430;-63
2024/01/22 05:36:57;;;;;;;2.70;2.60;;;9.30;99.90;;;;;;4879677;29;20452;-64
2024/01/22 05:39:23;;;;;;;2.80;2.60;;;9.30;99.90;;;;;;4883565;29;20453;-63
2024/01/22 05:41:49;;;;;;;2.20;2.10;;;9.30;99.90;;;;;;4879712;29;20499;-63
2024/01/22 05:44:14;;;;;;;2.87;2.77;;;9.40;99.90;;;;;;4893521;29;20205;-64
2024/01/22 05:46:40;;;;;;;3.10;3.00;;;9.30;99.90;;;;;;4888204;29;20272;-63
2024/01/22 05:49:06;;;;;;;3.10;3.00;;;9.30;99.90;;;;;;4898800;29;20184;-64
2024/01/22 05:51:32;;;;;;;3.47;3.20;;;9.40;99.90;;;;;;4898136;29;20907;-63
2024/01/22 05:54:01;;;;;;;3.03;2.93;;;9.40;99.90;;;;;;4895157;29;20490;-62
2024/01/22 05:56:28;;;;;;;3.20;3.00;;;9.40;99.90;;;;;;4895697;29;20247;-63
2024/01/22 05:58:55;;;;;;;3.17;3.00;;;9.40;99.90;;;;;;4897781;29;20445;-64
2024/01/22 06:01:25;;;;;;;3.20;3.00;;;9.40;99.90;;;;;;4895345;29;20433;-65
2024/01/22 06:03:53;;;;;;;3.00;2.90;;;9.50;99.90;;;;;;4883764;29;20499;-65
2024/01/22 06:06:19;;;;;;;3.17;2.97;;;9.40;99.90;;;;;;4892979;29;20516;-66
2024/01/22 06:08:46;;;;;;;2.20;2.10;;;9.30;99.90;;;;;;4879769;29;20551;-65
2024/01/22 06:11:12;;;;;;;2.10;2.00;;;9.40;99.90;;;;;;4891819;29;20462;-65
2024/01/22 06:13:39;;;;;;;3.00;2.90;;;9.40;99.90;;;;;;4862455;29;20413;-67
2024/01/22 06:16:11;;;;;;;2.87;2.77;;;9.40;99.90;;;;;;4889278;29;20429;-65
2024/01/22 06:18:42;;;;;;;3.00;2.90;;;9.40;99.90;;;;;;4890403;29;20437;-66
2024/01/22 06:21:11;;;;;;;3.30;3.10;;;9.50;99.90;;;;;;4896791;29;20416;-65
2024/01/22 06:23:36;;;;;;;2.50;2.40;;;9.50;99.90;;;;;;4880959;29;20803;-65
2024/01/22 06:26:02;;;;;;;2.30;2.20;;;9.50;99.90;;;;;;4883157;29;20438;-67
2024/01/22 06:28:30;;;;;;;2.60;2.40;;;9.50;99.90;;;;;;4895760;29;20184;-65
2024/01/22 06:30:55;;;;;;;2.30;2.20;;;9.50;99.90;;;;;;4886050;29;20470;-65
2024/01/22 06:33:22;;;;;;;3.70;3.37;;;9.60;99.90;;;;;;4882716;29;20917;-65
2024/01/22 06:35:48;;;;;;;3.30;3.10;;;9.60;99.90;;;;;;4884371;29;20245;-65
2024/01/22 06:38:18;;;;;;;2.40;2.30;;;9.60;99.90;;;;;;4896182;29;20941;-66
2024/01/22 06:40:46;;;;;;;2.87;2.77;;;9.60;99.90;;;;;;4893049;29;20978;-62
2024/01/22 06:43:13;;;;;;;2.50;2.40;;;9.70;99.90;;;;;;4890385;29;20934;-64
2024/01/22 06:45:39;;;;;;;3.00;2.33;;;9.70;99.90;;;;;;4894181;29;20503;-63
2024/01/22 06:48:05;;;;;;;2.70;1.83;;;9.70;99.90;;;;;;4893124;29;20568;-63
2024/01/22 06:50:31;;;;;;;2.80;2.70;;;9.60;99.90;;;;;;4881480;29;20464;-64
2024/01/22 06:52:56;;;;;;;2.57;2.47;;;9.60;99.90;;;;;;4883211;29;20440;-63
2024/01/22 06:55:26;;;;;;;2.60;2.47;;;9.70;99.90;;;;;;4885588;29;20192;-63
2024/01/22 06:57:51;;;;;;;2.67;2.57;;;9.70;99.90;;;;;;4891889;29;20304;-61
2024/01/22 07:00:19;;;;;;;2.50;2.40;;;9.80;99.90;;;;;;4895099;29;20528;-63
2024/01/22 07:02:45;;;;;;;2.60;2.40;;;9.80;99.90;;;;;;4867684;29;20210;-61
2024/01/22 07:05:11;;;;;;;2.70;2.50;;;9.80;99.90;;;;;;4888129;29;20445;-63
2024/01/22 07:07:38;;;;;;;2.53;2.43;;;9.90;99.90;;;;;;4889206;29;20416;-63
2024/01/22 07:10:08;;;;;;;2.80;2.70;;;9.80;99.90;;;;;;4880075;29;20473;-63
2024/01/22 07:12:41;;;;;;;2.77;2.67;;;9.80;99.90;;;;;;4897214;29;20509;-63
2024/01/22 07:15:12;;;;;;;2.50;2.40;;;9.90;99.90;;;;;;4895694;29;20947;-63
2024/01/22 07:17:39;;;;;;;3.00;2.90;;;9.90;99.90;;;;;;4897473;29;20410;-63
2024/01/22 07:20:08;;;;;;;2.93;2.80;;;9.90;99.90;;;;;;4896377;29;20480;-63
2024/01/22 07:22:36;;;;;;;3.40;3.30;;;9.80;99.90;;;;;;4897417;29;20416;-63
2024/01/22 07:25:03;;;;;;;3.10;3.00;;;9.90;99.90;;;;;;4896783;29;20441;-62
2024/01/22 07:27:29;;;;;;;3.10;3.00;;;9.90;99.90;;;;;;4878118;29;20781;-63
2024/01/22 07:29:55;;;;;;;2.53;2.33;;;10.00;99.90;;;;;;4890333;29;20864;-62
2024/01/22 07:32:21;;;;;;;2.70;2.57;;;9.90;99.90;;;;;;4889701;29;20426;-63
2024/01/22 07:34:46;;;;;;;2.23;2.23;;;10.00;99.90;;;;;;4893183;29;20423;-62
2024/01/22 07:37:12;;;;;;;2.00;2.00;;;9.80;99.90;;;;;;4894798;29;20210;-63
2024/01/22 07:39:38;;;;;;;2.43;2.33;;;9.70;99.90;;;;;;4864081;29;20199;-63
2024/01/22 07:42:04;;;;;;;2.83;2.67;;;9.70;99.90;;;;;;4890187;29;20189;-64
2024/01/22 07:44:29;;;;;;;2.50;2.40;;;9.80;99.90;;;;;;4891236;29;20657;-63
2024/01/22 07:46:55;;;;;;;2.60;2.50;;;9.80;99.90;;;;;;4911516;29;20459;-67
2024/01/22 07:49:22;;;;;;;3.10;2.60;;;9.90;99.90;;;;;;4905940;29;20267;-66
2024/01/22 07:51:48;;;;;;;2.50;2.30;;;9.90;99.90;;;;;;4891620;29;20486;-62
2024/01/22 07:54:14;;;;;;;2.30;2.20;;;9.90;99.90;;;;;;4886267;29;20433;-63
2024/01/22 07:56:40;;;;;;;2.77;2.67;;;10.00;99.90;;;;;;4907649;29;20241;-63
2024/01/22 07:59:06;;;;;;;2.43;2.40;;;10.10;99.90;;;;;;4909826;29;20195;-64
2024/01/22 08:01:31;;;;;;;2.73;2.63;;;10.20;99.90;;;;;;4901649;29;20434;-63
2024/01/22 08:03:57;;;;;;;3.00;2.90;;;10.30;99.90;;;;;;4898041;29;20190;-63
2024/01/22 08:06:23;;;;;;;2.40;2.30;;;10.40;99.90;;;;;;4903668;29;20187;-64
2024/01/22 08:08:48;;;;;;;2.37;2.33;;;10.50;99.90;;;;;;4899848;29;20182;-63
2024/01/22 08:11:14;;;;;;;2.60;2.50;;;10.60;99.90;;;;;;4899090;29;20252;-63
2024/01/22 08:13:40;;;;;;;2.90;2.80;;;10.60;99.90;;;;;;4899179;29;20195;-63
2024/01/22 08:16:05;;;;;;;2.73;2.60;;;10.70;99.90;;;;;;4902408;29;20804;-69
2024/01/22 08:18:31;;;;;;;3.57;3.37;;;10.80;99.90;;;;;;4900038;29;20179;-68
2024/01/22 08:20:57;;;;;;;3.07;2.87;;;10.90;99.90;;;;;;4899945;29;20581;-61
2024/01/22 08:23:23;;;;;;;3.73;3.53;;;11.10;99.90;;;;;;4906504;29;20191;-61
2024/01/22 08:25:48;;;;;;;3.37;3.17;;;11.50;99.90;;;;;;4910230;29;20173;-61
2024/01/22 08:28:14;;;;;;;3.00;2.90;;;11.80;99.90;;;;;;4895675;29;20531;-62
2024/01/22 08:30:40;;;;;;;3.00;2.90;;;11.80;99.90;;;;;;4884158;29;20215;-62
2024/01/22 08:33:05;;;;;;;2.97;2.87;;;11.70;99.90;;;;;;4883071;29;20195;-62
2024/01/22 08:35:31;;;;;;;2.70;2.50;;;11.80;99.90;;;;;;4883563;29;20179;-62
2024/01/22 08:37:57;;;;;;;2.40;2.30;;;11.90;99.90;;;;;;4904501;29;20183;-61
2024/01/22 08:40:23;;;;;;;2.63;2.60;;;12.10;99.90;;;;;;4906141;29;20938;-62
2024/01/22 08:42:51;;;;;;;4.53;2.30;;;12.30;99.90;;;;;;4878558;29;20695;-62
2024/01/22 08:45:17;;;;;;;2.70;2.60;;;12.40;99.90;;;;;;4897573;29;20452;-62
2024/01/22 08:47:45;;;;;;;3.17;2.37;;;12.40;99.90;;;;;;4881200;29;20414;-62
2024/01/22 08:50:15;;;;;;;2.33;2.23;;;12.50;99.90;;;;;;4911612;29;20930;-63
2024/01/22 08:52:46;;;;;;;2.80;2.70;;;12.60;99.90;;;;;;4897338;29;20434;-69
2024/01/22 08:55:11;;;;;;;3.70;2.60;;;12.50;99.90;;;;;;4886939;29;20423;-71
2024/01/22 08:57:39;;;;;;;2.33;2.23;;;12.40;99.90;;;;;;4884490;29;20480;-71
2024/01/22 09:00:10;;;;;;;2.03;2.03;;;12.10;99.90;;;;;;4866322;29;20201;-71
2024/01/22 09:02:40;;;;;;;2.30;2.20;;;12.00;99.90;;;;;;4895784;29;20490;-71
2024/01/22 09:05:10;;;;;;;192.50;117.13;;;11.80;99.90;;;;;;4878159;29;20427;-70
2024/01/22 09:07:37;;;;;;;7.27;5.73;;;11.70;99.90;;;;;;4896171;29;20435;-72
2024/01/22 09:10:06;;;;;;;2.93;2.83;;;11.70;99.90;;;;;;4877858;29;20542;-71
2024/01/22 09:12:33;;;;;;;2.00;1.90;;;11.60;99.90;;;;;;4897938;29;20432;-69
2024/01/22 09:15:00;;;;;;;1.97;1.97;;;11.50;99.90;;;;;;4888197;29;20473;-72
2024/01/22 09:17:26;;;;;;;2.20;2.20;;;11.40;99.90;;;;;;4906955;29;20426;-72
2024/01/22 09:19:52;;;;;;;2.50;2.40;;;11.50;99.90;;;;;;4891005;29;20420;-64
2024/01/22 09:22:19;;;;;;;9.73;2.77;;;11.50;99.90;;;;;;4898451;29;20916;-73
2024/01/22 09:24:45;;;;;;;2.50;2.50;;;11.40;99.90;;;;;;4899036;29;20415;-72
2024/01/22 09:27:11;;;;;;;2.87;2.77;;;11.40;99.90;;;;;;4881875;29;20454;-72
2024/01/22 09:29:37;;;;;;;3.10;2.90;;;11.50;99.90;;;;;;4898851;29;20912;-72
2024/01/22 09:32:03;;;;;;;2.60;2.50;;;11.50;99.90;;;;;;4897349;29;20214;-72
2024/01/22 09:34:29;;;;;;;2.50;2.40;;;11.50;99.90;;;;;;4882091;29;20594;-72
2024/01/22 09:36:54;;;;;;;2.83;2.80;;;11.50;99.90;;;;;;4901974;29;20400;-71
2024/01/22 09:39:20;;;;;;;2.90;2.80;;;11.50;99.90;;;;;;4909625;29;20415;-71
2024/01/22 09:41:48;;;;;;;3.07;2.97;;;11.50;99.90;;;;;;4899858;29;20189;-71
2024/01/22 09:44:14;;;;;;;3.23;3.13;;;11.50;99.90;;;;;;4897412;29;20545;-72
2024/01/22 09:46:41;;;;;;;3.50;3.30;;;11.50;99.90;;;;;;4888410;29;20414;-72
2024/01/22 09:49:06;;;;;;;3.80;3.70;;;11.50;99.90;;;;;;4888407;29;20420;-72
2024/01/22 09:51:34;;;;;;;3.50;3.30;;;11.50;99.90;;;;;;4889430;29;20949;-72
2024/01/22 09:54:06;;;;;;;3.60;3.40;;;11.50;99.90;;;;;;4887118;29;20636;-72
2024/01/22 09:56:34;;;;;;;3.60;3.30;;;11.60;99.90;;;;;;4897983;29;20559;-71
2024/01/22 09:59:19;;;;;;;2.77;2.63;;;11.60;99.90;;;;;;4897668;29;20427;-70
2024/01/22 10:01:48;;;;;;;3.20;2.90;;;11.60;99.90;;;;;;4890682;29;20504;-70
2024/01/22 10:04:15;;;;;;;2.90;2.80;;;11.70;99.90;;;;;;4896704;29;20432;-70
2024/01/22 10:06:41;;;;;;;3.90;3.07;;;11.70;99.90;;;;;;4898350;29;20453;-70
2024/01/22 10:09:07;;;;;;;2.90;2.80;;;11.70;99.90;;;;;;4889770;29;20837;-71
2024/01/22 10:11:33;;;;;;;5.77;3.30;;;11.70;99.90;;;;;;4907735;29;20466;-71
2024/01/22 10:13:59;;;;;;;3.07;2.87;;;11.80;99.90;;;;;;4911970;29;20776;-71
2024/01/22 10:16:28;;;;;;;3.30;3.10;;;11.80;99.90;;;;;;4917023;29;20420;-71
2024/01/22 10:19:05;;;;;;;3.50;3.20;;;11.80;99.90;;;;;;4916378;29;20429;-69
2024/01/22 10:21:31;;;;;;;3.67;3.47;;;11.90;99.90;;;;;;4916406;29;20490;-72
2024/01/22 10:23:59;;;;;;;3.30;3.10;;;11.90;99.90;;;;;;4899373;29;20907;-70
2024/01/22 10:26:25;;;;;;;3.50;3.20;;;11.90;99.90;;;;;;4899955;29;20446;-72
2024/01/22 10:28:51;;;;;;;3.33;3.10;;;12.00;99.90;;;;;;4917082;29;20407;-71
2024/01/22 10:31:17;;;;;;;4.93;3.33;;;12.00;99.90;;;;;;4916074;29;20463;-71
2024/01/22 10:33:43;;;;;;;3.90;3.60;;;12.10;99.90;;;;;;4916940;29;20408;-71
2024/01/22 10:36:16;;;;;;;3.93;3.60;;;12.10;99.90;;;;;;4916299;29;20175;-70
2024/01/22 10:38:47;;;;;;;3.93;3.63;;;12.20;99.90;;;;;;4916839;29;20175;-71
2024/01/22 10:41:20;;;;;;;4.03;3.73;;;12.20;99.90;;;;;;4913620;29;20878;-70
2024/01/22 10:43:47;;;;;;;3.67;3.30;;;12.30;99.90;;;;;;4879282;29;20401;-71
2024/01/22 10:46:13;;;;;;;3.60;3.30;;;12.20;99.90;;;;;;4861529;29;20474;-71
2024/01/22 10:48:40;;;;;;;2.97;2.63;;;12.30;99.90;;;;;;4879272;29;20479;-71
2024/01/22 10:51:06;;;;;;;2.93;2.73;;;12.30;99.90;;;;;;4878503;29;20979;-71
2024/01/22 10:53:32;;;;;;;5.03;3.30;;;12.40;99.90;;;;;;4880043;29;21058;-70
2024/01/22 10:56:04;;;;;;;3.73;3.43;;;12.40;99.90;;;;;;4895998;29;20449;-70
2024/01/22 10:58:41;;;;;;;3.93;3.23;;;12.40;99.90;;;;;;4897380;29;20821;-71
2024/01/22 11:01:16;;;;;;;5.93;4.20;;;12.50;99.90;;;;;;4893776;29;20491;-70
2024/01/22 11:03:49;;;;;;;3.97;3.67;;;12.50;99.90;;;;;;4895333;29;20442;-71
2024/01/22 11:06:19;;;;;;;4.13;3.83;;;12.60;99.90;;;;;;4897059;29;20405;-71
2024/01/22 11:08:53;;;;;;;4.10;3.10;;;12.60;99.90;;;;;;4897661;29;20402;-71
2024/01/22 11:11:26;;;;;;;4.30;3.43;;;12.60;99.90;;;;;;4896903;29;20613;-71
2024/01/22 11:13:58;;;;;;;5.47;3.63;;;12.60;99.90;;;;;;4880912;29;20761;-71
2024/01/22 11:16:24;;;;;;;5.30;2.83;;;12.70;99.90;;;;;;4881601;29;20404;-71
2024/01/22 11:19:01;;;;;;;5.33;3.30;;;12.70;99.90;;;;;;4897004;29;20412;-71
2024/01/22 11:21:42;;;;;;;3.77;3.40;;;12.70;99.90;;;;;;4897330;29;20426;-71
2024/01/22 11:24:14;;;;;;;4.20;3.37;;;12.80;99.90;;;;;;4896614;29;20418;-71
2024/01/22 11:27:04;;;;;;;2.87;2.67;;;12.70;99.90;;;;;;4897179;29;20516;-71
2024/01/22 11:29:31;;;;;;;3.40;3.17;;;12.70;99.90;;;;;;4886840;29;20425;-70
2024/01/22 11:31:57;;;;;;;5.03;3.47;;;12.60;99.90;;;;;;4882811;29;20439;-71
2024/01/22 11:34:38;;;;;;;4.47;3.30;;;12.60;99.90;;;;;;4882206;29;20422;-71
2024/01/22 11:37:04;;;;;;;4.63;4.23;;;12.70;99.90;;;;;;4881840;29;20420;-71
2024/01/22 11:39:33;;;;;;;3.73;3.43;;;12.60;99.90;;;;;;4882437;29;20407;-71
2024/01/22 11:42:25;;;;;;;4.27;3.70;;;12.60;99.90;;;;;;4881776;29;20455;-67
2024/01/22 11:44:52;;;;;;;3.40;3.30;;;12.60;99.90;;;;;;4881345;29;20402;-71
2024/01/22 11:47:20;;;;;;;3.70;3.40;;;12.60;99.90;;;;;;4881993;29;20807;-71
2024/01/22 11:49:46;;;;;;;3.20;3.00;;;12.60;99.90;;;;;;4881759;29;20414;-71
2024/01/22 11:52:20;;;;;;;3.30;3.07;;;12.70;99.90;;;;;;4881326;29;20474;-71
2024/01/22 11:54:56;;;;;;;2.67;2.57;;;12.70;99.90;;;;;;4881879;29;20774;-71
2024/01/22 11:57:22;;;;;;;2.87;2.77;;;12.70;99.90;;;;;;4881532;29;20482;-71
2024/01/22 12:00:14;;;;;;;2.50;2.40;;;12.70;99.90;;;;;;4882532;29;20435;-71
2024/01/22 12:02:41;;;;;;;3.10;2.90;;;12.70;99.90;;;;;;4900854;29;20418;-71
2024/01/22 12:05:10;;;;;;;4.60;3.07;;;12.70;99.90;;;;;;4899831;29;20450;-71
2024/01/22 12:07:43;;;;;;;4.10;3.27;;;12.60;99.90;;;;;;4900664;29;20414;-71
2024/01/22 12:10:23;;;;;;;2.90;2.70;;;12.50;99.90;;;;;;4900199;29;20889;-71
2024/01/22 12:12:56;;;;;;;2.97;2.77;;;12.50;99.90;;;;;;4900581;29;20414;-71
2024/01/22 12:15:24;;;;;;;9.33;2.80;;;12.50;99.90;;;;;;4900027;29;20408;-71
2024/01/22 12:17:50;;;;;;;2.43;2.23;;;12.50;99.90;;;;;;4900539;29;20413;-71
2024/01/22 12:20:18;;;;;;;2.43;1.97;;;12.60;99.90;;;;;;4899503;29;20439;-70
2024/01/22 12:22:43;;;;;;;2.43;2.23;;;12.60;99.90;;;;;;4900381;29;20413;-70
2024/01/22 12:25:12;;;;;;;2.20;2.10;;;12.60;99.90;;;;;;4898210;29;20482;-71
2024/01/22 12:27:38;;;;;;;2.33;2.13;;;12.60;99.90;;;;;;4900324;29;20189;-71
2024/01/22 12:30:17;;;;;;;3.47;2.10;;;12.50;99.90;;;;;;4897556;29;20475;-70
2024/01/22 12:32:53;;;;;;;4.00;2.20;;;12.60;99.90;;;;;;4900350;29;20433;-71
2024/01/22 12:35:23;;;;;;;2.70;2.23;;;12.60;99.90;;;;;;4899087;29;20774;-71
2024/01/22 12:37:49;;;;;;;2.10;2.00;;;12.70;99.90;;;;;;4900129;29;20425;-71
2024/01/22 12:40:19;;;;;;;1.80;1.70;;;12.70;99.90;;;;;;4882749;29;20413;-70
2024/01/22 12:42:47;;;;;;;2.87;2.03;;;12.50;99.90;;;;;;4899570;29;20775;-71
2024/01/22 12:45:15;;;;;;;2.30;2.10;;;12.40;99.90;;;;;;4899358;29;20492;-71
2024/01/22 12:47:41;;;;;;;2.60;2.00;;;12.30;99.90;;;;;;4899976;29;20419;-70
2024/01/22 12:50:09;;;;;;;2.20;2.00;;;12.20;99.90;;;;;;4898890;29;20457;-70
2024/01/22 12:52:35;;;;;;;1.73;1.70;;;12.20;99.90;;;;;;4900084;29;20439;-70